Time;durP1;ratioP1;P1;durP2;ratioP2;P2;SDS_P1;SDS_P2;PMS_P1;PMS_P2;Temp;Humidity;BMP_temperature;BMP_pressure;BME280_temperature;BME280_humidity;BME280_pressure;Samples;Min_cycle;Max_cycle;Signal;HPM_P1;HPM_P2
2022/12/30 00:00:48;;;;;;;31.48;3.15;;;;;;;6.42;100.00;100727.75;5113519;27;20114;-83
2022/12/30 00:03:14;;;;;;;12.15;2.70;;;;;;;6.41;100.00;100736.91;5112490;27;20051;-83
2022/12/30 00:05:39;;;;;;;27.75;2.65;;;;;;;6.40;100.00;100720.69;5111486;27;20140;-83
2022/12/30 00:08:45;;;;;;;27.77;3.47;;;;;;;6.25;100.00;100736.13;5112585;27;20035;-83
2022/12/30 00:10:50;;;;;;;26.58;2.88;;;;;;;6.12;100.00;100729.72;5116405;27;20046;-83
2022/12/30 00:35:16;;;;;;;17.70;3.28;;;;;;;5.81;100.00;100750.59;5130563;27;20031;-84
2022/12/30 00:37:41;;;;;;;29.98;3.72;;;;;;;5.66;100.00;100745.13;5130274;27;20027;-83
2022/12/30 00:40:08;;;;;;;32.08;3.50;;;;;;;5.60;100.00;100739.19;5113362;27;20442;-84
2022/12/30 00:45:17;;;;;;;27.58;2.92;;;;;;;5.73;100.00;100742.91;5132115;27;20035;-83
2022/12/30 00:47:43;;;;;;;18.70;3.30;;;;;;;5.64;100.00;100744.34;5104166;27;20051;-83
2022/12/30 00:58:21;;;;;;;16.83;2.20;;;;;;;5.69;100.00;100727.78;5113151;27;20098;-83
2022/12/30 01:00:47;;;;;;;26.90;3.33;;;;;;;5.71;100.00;100723.97;5112717;27;20509;-83
2022/12/30 01:03:12;;;;;;;27.83;3.10;;;;;;;5.76;100.00;100734.56;5129099;27;20042;-83
2022/12/30 01:05:39;;;;;;;25.92;2.38;;;;;;;5.74;100.00;100731.09;5127696;27;20035;-83
2022/12/30 01:08:04;;;;;;;23.15;2.80;;;;;;;5.75;100.00;100731.94;5127781;27;20087;-83
2022/12/30 01:10:30;;;;;;;17.13;2.75;;;;;;;5.77;100.00;100727.28;5097154;27;20046;-83
2022/12/30 01:12:55;;;;;;;28.85;3.30;;;;;;;5.73;100.00;100733.88;5128507;27;20453;-83
2022/12/30 01:15:21;;;;;;;21.73;2.97;;;;;;;5.82;100.00;100738.75;5112059;27;20067;-84
2022/12/30 01:17:46;;;;;;;25.58;2.42;;;;;;;5.81;100.00;100740.59;5095227;27;20055;-84
2022/12/30 01:20:11;;;;;;;26.23;2.70;;;;;;;5.85;100.00;100744.88;5112088;27;20514;-84
2022/12/30 01:22:37;;;;;;;27.25;2.78;;;;;;;5.90;100.00;100750.00;5110698;27;20524;-84
2022/12/30 01:25:03;;;;;;;23.25;2.53;;;;;;;5.88;100.00;100754.69;5112232;27;20038;-84
2022/12/30 01:27:30;;;;;;;24.20;3.03;;;;;;;5.70;100.00;100735.81;5125090;28;20032;-84
2022/12/30 01:29:56;;;;;;;16.42;2.13;;;;;;;5.66;100.00;100736.97;5091980;28;20147;-83
2022/12/30 01:32:21;;;;;;;15.77;1.85;;;;;;;5.76;100.00;100761.75;5126436;28;20482;-84
2022/12/30 01:34:47;;;;;;;22.30;2.50;;;;;;;5.76;100.00;100750.00;5108858;28;20081;-84
2022/12/30 01:37:14;;;;;;;16.67;2.25;;;;;;;5.76;100.00;100750.88;5107744;28;20051;-83
2022/12/30 01:39:40;;;;;;;19.98;2.42;;;;;;;5.70;100.00;100752.09;5126038;28;20039;-84
2022/12/30 01:42:19;;;;;;;27.00;2.78;;;;;;;5.64;100.00;100757.03;5122231;27;20478;-83
2022/12/30 01:45:16;;;;;;;24.55;3.05;;;;;;;5.78;100.00;100762.50;5108170;28;20402;-84
2022/12/30 01:47:53;;;;;;;21.55;2.55;;;;;;;5.68;100.00;100761.31;5110672;28;20444;-83
2022/12/30 01:50:31;;;;;;;19.77;2.25;;;;;;;5.69;100.00;100766.66;5132419;28;20402;-83
2022/12/30 01:53:00;;;;;;;26.40;3.20;;;;;;;5.59;100.00;100770.91;5107187;28;20032;-83
2022/12/30 01:55:37;;;;;;;15.95;2.28;;;;;;;5.67;100.00;100784.91;5111750;28;20038;-83
2022/12/30 01:58:07;;;;;;;26.65;3.50;;;;;;;5.59;100.00;100768.19;5108956;28;20024;-83
2022/12/30 02:00:32;;;;;;;21.42;2.80;;;;;;;5.63;100.00;100774.31;5108755;28;20031;-83
2022/12/30 02:02:58;;;;;;;18.08;2.28;;;;;;;5.69;100.00;100782.09;5090870;28;20040;-84
2022/12/30 02:05:31;;;;;;;24.58;2.67;;;;;;;5.55;100.00;100782.91;5116776;28;20038;-84
2022/12/30 02:08:12;;;;;;;28.15;2.90;;;;;;;5.55;100.00;100801.06;5121677;28;20070;-83
2022/12/30 02:10:43;;;;;;;24.73;2.55;;;;;;;5.46;100.00;100787.06;5122659;28;20027;-83
2022/12/30 02:13:13;;;;;;;37.15;2.88;;;;;;;5.58;100.00;100801.75;5126660;28;20039;-83
2022/12/30 02:15:52;;;;;;;24.63;2.63;;;;;;;5.57;100.00;100804.53;5085884;28;20032;-83
2022/12/30 02:18:56;;;;;;;19.08;2.45;;;;;;;5.62;100.00;100816.00;5093592;28;20095;-83
2022/12/30 02:21:47;;;;;;;19.30;1.98;;;;;;;5.61;100.00;100798.84;5103984;28;20035;-83
2022/12/30 02:24:31;;;;;;;37.55;3.22;;;;;;;5.61;100.00;100793.41;5103116;27;20059;-83
2022/12/30 02:27:07;;;;;;;22.55;2.40;;;;;;;5.58;100.00;100777.31;5129169;27;20509;-83
2022/12/30 02:30:02;;;;;;;29.60;3.85;;;;;;;5.55;100.00;100782.91;5118796;28;20367;-83
2022/12/30 02:33:08;;;;;;;21.45;2.63;;;;;;;5.49;100.00;100778.72;5084693;28;20051;-84
2022/12/30 02:36:04;;;;;;;25.65;2.92;;;;;;;5.58;100.00;100784.59;5098406;28;20036;-83
2022/12/30 02:38:33;;;;;;;14.55;2.05;;;;;;;5.44;100.00;100778.09;5100515;28;20032;-83
2022/12/30 02:46:50;;;;;;;16.40;2.22;;;;;;;5.41;100.00;100774.69;5123563;28;20024;-84
2022/12/30 02:49:18;;;;;;;25.50;2.50;;;;;;;5.43;100.00;100778.22;5121316;28;20030;-84
2022/12/30 02:54:30;;;;;;;25.45;2.33;;;;;;;5.40;100.00;100752.13;5105586;28;20032;-83
2022/12/30 02:56:55;;;;;;;21.30;2.05;;;;;;;5.40;100.00;100759.41;5106631;28;20032;-84
2022/12/30 03:05:30;;;;;;;18.90;2.13;;;;;;;5.42;100.00;100747.47;5112943;28;20031;-83
2022/12/30 03:08:06;;;;;;;26.43;3.33;;;;;;;5.39;100.00;100741.34;5119798;28;20403;-83
2022/12/30 03:11:17;;;;;;;22.40;2.58;;;;;;;5.17;100.00;100731.75;5119996;28;20390;-83
2022/12/30 03:14:08;;;;;;;20.70;2.70;;;;;;;5.16;100.00;100705.56;5105347;28;20390;-84
2022/12/30 03:16:38;;;;;;;22.02;2.35;;;;;;;5.31;100.00;100720.97;5116472;28;20027;-83
2022/12/30 03:19:12;;;;;;;15.90;2.65;;;;;;;5.24;100.00;100725.00;5122668;28;20027;-84
2022/12/30 03:21:40;;;;;;;24.27;2.40;;;;;;;5.28;100.00;100720.25;5126696;28;20031;-84
2022/12/30 03:27:04;;;;;;;23.77;2.90;;;;;;;5.39;100.00;100716.91;5121175;28;20047;-83
2022/12/30 03:30:00;;;;;;;23.05;2.22;;;;;;;5.31;100.00;100731.81;5134950;27;20035;-84
2022/12/30 03:32:30;;;;;;;20.33;2.85;;;;;;;5.33;100.00;100729.88;5119345;28;20042;-83
2022/12/30 03:34:55;;;;;;;22.60;2.22;;;;;;;5.39;100.00;100730.47;5125527;28;20027;-83
2022/12/30 03:37:48;;;;;;;23.83;3.00;;;;;;;5.45;100.00;100733.69;5092149;28;20371;-83
2022/12/30 03:40:21;;;;;;;14.27;2.17;;;;;;;5.56;100.00;100737.59;5134027;27;20042;-82
2022/12/30 03:42:48;;;;;;;22.10;2.47;;;;;;;5.54;100.00;100737.69;5103063;28;20023;-83
2022/12/30 03:45:15;;;;;;;18.05;1.73;;;;;;;5.53;100.00;100742.25;5123944;28;20068;-83
2022/12/30 03:47:40;;;;;;;20.85;2.60;;;;;;;5.41;100.00;100732.16;5109014;28;20031;-83
2022/12/30 03:50:06;;;;;;;23.45;2.53;;;;;;;5.41;100.00;100731.25;5108153;28;20047;-84
2022/12/30 03:52:31;;;;;;;21.70;2.60;;;;;;;5.34;100.00;100726.22;5092454;28;20053;-83
2022/12/30 03:54:57;;;;;;;28.20;3.13;;;;;;;5.31;100.00;100715.53;5078579;28;20035;-83
2022/12/30 03:57:22;;;;;;;25.98;2.63;;;;;;;5.27;100.00;100726.66;5120815;28;20036;-83
2022/12/30 03:59:48;;;;;;;20.60;2.00;;;;;;;5.32;100.00;100733.56;5120410;28;20043;-83
2022/12/30 04:02:14;;;;;;;21.95;2.42;;;;;;;5.38;100.00;100731.44;5108297;28;20068;-83
2022/12/30 04:04:39;;;;;;;15.15;2.13;;;;;;;5.25;100.00;100715.03;5106973;28;20038;-83
2022/12/30 04:07:05;;;;;;;18.05;2.28;;;;;;;5.26;100.00;100720.38;5108082;28;20042;-83
2022/12/30 04:09:30;;;;;;;16.75;2.22;;;;;;;5.24;100.00;100721.41;5075820;28;20028;-83
2022/12/30 04:11:55;;;;;;;25.83;2.95;;;;;;;5.32;100.00;100729.97;5092606;28;20111;-84
2022/12/30 04:14:21;;;;;;;21.92;2.28;;;;;;;5.31;100.00;100720.06;5092296;28;20032;-83
2022/12/30 04:16:46;;;;;;;12.55;2.40;;;;;;;5.24;100.00;100726.84;5126659;28;20027;-82
2022/12/30 04:19:12;;;;;;;24.67;2.67;;;;;;;5.11;100.00;100707.69;5103243;28;20035;-83
2022/12/30 04:21:38;;;;;;;29.27;2.53;;;;;;;5.15;100.00;100718.28;5093076;28;20062;-83
2022/12/30 04:24:04;;;;;;;14.68;2.28;;;;;;;5.27;100.00;100732.09;5075003;28;20041;-83
2022/12/30 04:26:29;;;;;;;28.65;2.53;;;;;;;5.23;100.00;100727.78;5108665;28;20027;-83
2022/12/30 04:28:54;;;;;;;24.30;3.30;;;;;;;5.25;100.00;100731.31;5107227;28;20040;-83
2022/12/30 04:31:23;;;;;;;18.70;2.58;;;;;;;5.22;100.00;100729.66;5091302;28;20034;-84
2022/12/30 04:33:52;;;;;;;28.35;2.60;;;;;;;5.21;100.00;100722.44;5108258;27;20066;-84
2022/12/30 04:36:19;;;;;;;25.70;2.80;;;;;;;5.32;100.00;100743.53;5129841;27;20409;-83
2022/12/30 04:38:45;;;;;;;15.70;2.08;;;;;;;5.29;100.00;100741.00;5128944;27;20035;-84
2022/12/30 04:41:11;;;;;;;21.73;2.75;;;;;;;5.33;100.00;100738.03;5112491;27;20117;-84
2022/12/30 04:43:37;;;;;;;25.33;2.40;;;;;;;5.28;100.00;100740.16;5127162;27;20119;-83
2022/12/30 04:46:03;;;;;;;16.90;2.25;;;;;;;5.33;100.00;100731.75;5128255;27;20064;-83
2022/12/30 04:48:29;;;;;;;18.10;2.53;;;;;;;5.29;100.00;100727.44;5147287;27;20059;-84
2022/12/30 04:50:54;;;;;;;17.58;2.35;;;;;;;5.26;100.00;100724.91;5109797;27;20035;-83
2022/12/30 04:53:23;;;;;;;22.55;2.35;;;;;;;5.29;100.00;100735.59;5093436;27;20040;-84
2022/12/30 04:55:52;;;;;;;21.95;3.08;;;;;;;5.24;100.00;100714.13;5106518;28;20036;-84
2022/12/30 04:58:18;;;;;;;15.27;2.30;;;;;;;5.31;100.00;100720.97;5096716;28;20036;-84
2022/12/30 05:00:44;;;;;;;19.55;2.70;;;;;;;5.26;100.00;100730.31;5127868;27;20031;-84
2022/12/30 05:03:09;;;;;;;25.75;2.92;;;;;;;5.08;100.00;100713.28;5108066;28;20035;-84
2022/12/30 05:05:35;;;;;;;15.15;2.28;;;;;;;5.27;100.00;100730.25;5085902;27;20053;-83
2022/12/30 05:08:00;;;;;;;30.80;4.47;;;;;;;5.31;100.00;100734.53;5146290;27;20045;-84
2022/12/30 05:10:26;;;;;;;23.02;3.55;;;;;;;5.27;100.00;100741.09;5111584;27;20098;-84
2022/12/30 05:12:51;;;;;;;23.77;3.47;;;;;;;5.14;100.00;100734.66;5093868;27;20386;-84
2022/12/30 05:15:17;;;;;;;23.92;2.90;;;;;;;5.15;100.00;100725.56;5142544;27;20046;-84
2022/12/30 05:17:42;;;;;;;21.13;2.42;;;;;;;5.13;100.00;100732.88;5079114;27;20023;-84
2022/12/30 05:20:08;;;;;;;15.07;2.25;;;;;;;5.07;100.00;100733.28;5145659;27;20547;-84
2022/12/30 05:22:34;;;;;;;16.50;2.45;;;;;;;4.98;100.00;100729.22;5090737;28;20040;-84
2022/12/30 05:27:43;;;;;;;21.08;3.42;;;;;;;4.91;100.00;100717.84;5091828;27;20039;-84
2022/12/30 05:30:09;;;;;;;28.25;3.30;;;;;;;4.91;100.00;100715.16;5092765;27;20041;-83
2022/12/30 05:32:36;;;;;;;23.98;2.33;;;;;;;4.92;100.00;100714.19;5107372;27;20037;-83
2022/12/30 05:35:01;;;;;;;24.25;2.88;;;;;;;4.94;100.00;100717.69;5109607;27;20095;-83
2022/12/30 05:37:30;;;;;;;21.65;3.05;;;;;;;4.95;100.00;100721.25;5076040;27;20070;-84
2022/12/30 05:39:55;;;;;;;22.88;2.08;;;;;;;4.89;100.00;100716.22;5128660;27;20085;-83
2022/12/30 05:42:21;;;;;;;27.65;3.25;;;;;;;4.91;100.00;100725.13;5125524;27;20035;-84
2022/12/30 05:44:46;;;;;;;35.97;4.05;;;;;;;5.03;100.00;100723.53;5107695;27;20508;-83
2022/12/30 05:47:11;;;;;;;26.67;2.90;;;;;;;4.91;100.00;100700.72;5106437;27;20043;-83
2022/12/30 05:49:37;;;;;;;28.13;3.28;;;;;;;4.99;100.00;100701.16;5105830;27;20493;-84
2022/12/30 05:52:02;;;;;;;24.13;3.63;;;;;;;5.00;100.00;100697.47;5091758;27;20039;-83
2022/12/30 05:54:28;;;;;;;22.27;2.55;;;;;;;5.10;100.00;100704.09;5093678;27;20060;-83
2022/12/30 05:56:53;;;;;;;22.40;4.30;;;;;;;5.08;100.00;100699.72;5118119;27;20031;-82
2022/12/30 05:59:19;;;;;;;28.35;3.10;;;;;;;5.23;100.00;100716.94;5110950;27;20050;-82
2022/12/30 06:01:44;;;;;;;30.23;3.05;;;;;;;5.10;100.00;100716.78;5080238;28;20058;-83
2022/12/30 06:04:09;;;;;;;24.63;2.78;;;;;;;5.05;100.00;100711.66;5091644;27;20128;-83
2022/12/30 06:06:35;;;;;;;26.58;3.20;;;;;;;5.13;100.00;100711.19;5093109;27;20027;-83
2022/12/30 06:09:01;;;;;;;20.67;3.42;;;;;;;5.05;100.00;100692.66;5127185;27;20035;-83
2022/12/30 06:11:26;;;;;;;20.88;3.53;;;;;;;5.14;100.00;100685.78;5090829;27;20035;-83
2022/12/30 06:13:52;;;;;;;24.58;3.55;;;;;;;5.20;100.00;100707.16;5107008;27;20073;-83
2022/12/30 06:16:17;;;;;;;24.00;4.10;;;;;;;5.19;100.00;100704.53;5103408;27;20448;-83
2022/12/30 06:18:42;;;;;;;34.40;3.75;;;;;;;5.29;100.00;100690.31;5090616;27;20036;-83
2022/12/30 06:21:08;;;;;;;19.40;2.55;;;;;;;5.24;100.00;100684.28;5092869;27;20037;-84
2022/12/30 06:23:33;;;;;;;17.25;3.45;;;;;;;5.24;100.00;100688.84;5108181;27;20118;-83
2022/12/30 06:25:59;;;;;;;16.23;2.70;;;;;;;5.32;100.00;100700.97;5109204;27;20069;-83
2022/12/30 06:28:27;;;;;;;21.08;3.45;;;;;;;5.39;100.00;100685.19;5123274;27;20043;-83
2022/12/30 06:30:53;;;;;;;25.70;2.83;;;;;;;5.31;100.00;100674.81;5107481;27;20019;-83
2022/12/30 06:33:19;;;;;;;27.17;3.60;;;;;;;5.43;100.00;100683.19;5140777;27;20047;-83
2022/12/30 06:35:47;;;;;;;15.57;4.57;;;;;;;5.47;100.00;100676.59;5107752;27;20046;-83
2022/12/30 06:38:12;;;;;;;26.95;3.45;;;;;;;5.37;100.00;100669.97;5106150;27;20031;-85
2022/12/30 06:40:38;;;;;;;27.15;3.40;;;;;;;5.29;100.00;100656.88;5124613;27;20031;-83
2022/12/30 06:43:03;;;;;;;17.67;2.85;;;;;;;5.42;100.00;100662.44;5096444;27;20050;-84
2022/12/30 06:45:28;;;;;;;25.38;3.65;;;;;;;5.44;100.00;100685.78;5123446;27;20046;-84
2022/12/30 06:47:54;;;;;;;23.05;3.67;;;;;;;5.41;100.00;100667.00;5087214;27;20031;-83
2022/12/30 06:50:23;;;;;;;22.58;4.05;;;;;;;5.43;100.00;100680.47;5092200;27;20039;-82
2022/12/30 06:52:48;;;;;;;19.52;3.00;;;;;;;5.40;100.00;100672.50;5119210;27;20024;-82
2022/12/30 06:55:13;;;;;;;17.60;3.03;;;;;;;5.38;100.00;100669.91;5074532;27;20035;-82
2022/12/30 06:57:39;;;;;;;22.02;3.03;;;;;;;5.33;100.00;100669.31;5070174;27;20240;-82
2022/12/30 07:00:07;;;;;;;22.40;3.50;;;;;;;5.43;100.00;100664.19;5087898;28;20036;-83
2022/12/30 07:02:32;;;;;;;13.98;2.85;;;;;;;5.54;100.00;100658.94;5095368;27;20027;-83
2022/12/30 07:04:58;;;;;;;16.10;2.78;;;;;;;5.46;100.00;100644.97;5089005;27;20046;-83
2022/12/30 07:07:24;;;;;;;23.85;2.55;;;;;;;5.36;100.00;100620.22;5105472;27;20066;-83
2022/12/30 07:09:49;;;;;;;17.77;3.08;;;;;;;5.52;100.00;100629.16;5120683;27;20086;-83
2022/12/30 07:12:15;;;;;;;24.92;3.35;;;;;;;5.52;100.00;100628.31;5121794;27;20080;-84
2022/12/30 07:14:40;;;;;;;15.30;2.65;;;;;;;5.61;100.00;100621.44;5102934;27;20095;-84
2022/12/30 07:17:06;;;;;;;23.35;3.22;;;;;;;5.53;100.00;100608.34;5100571;28;20068;-84
2022/12/30 07:19:31;;;;;;;19.38;3.30;;;;;;;5.61;100.00;100611.44;5115873;27;20486;-83
2022/12/30 07:21:57;;;;;;;21.23;2.83;;;;;;;5.59;100.00;100596.22;5128035;27;20153;-83
2022/12/30 07:24:23;;;;;;;14.30;3.40;;;;;;;5.64;100.00;100594.97;5090065;28;20073;-83
2022/12/30 07:26:48;;;;;;;19.25;2.88;;;;;;;5.69;100.00;100595.53;5091535;28;20145;-84
2022/12/30 07:29:14;;;;;;;18.75;2.83;;;;;;;5.82;100.00;100600.19;5098036;28;20571;-83
2022/12/30 07:31:40;;;;;;;13.13;2.72;;;;;;;5.77;100.00;100594.19;5135719;28;20788;-84
2022/12/30 07:34:06;;;;;;;19.58;3.30;;;;;;;5.70;100.00;100607.28;5091475;28;20035;-83
2022/12/30 07:36:31;;;;;;;14.32;2.70;;;;;;;5.67;100.00;100581.19;5140587;28;20084;-83
2022/12/30 07:38:57;;;;;;;17.10;3.20;;;;;;;5.90;100.00;100608.72;5104075;28;20485;-83
2022/12/30 07:41:24;;;;;;;17.42;2.42;;;;;;;5.89;100.00;100596.13;5091943;28;20027;-84
2022/12/30 07:43:50;;;;;;;11.77;2.30;;;;;;;5.97;100.00;100606.50;5085472;28;20035;-85
2022/12/30 07:46:15;;;;;;;18.70;2.67;;;;;;;6.12;100.00;100596.53;5142170;28;20040;-84
2022/12/30 07:48:41;;;;;;;11.98;1.88;;;;;;;5.87;100.00;100574.50;5107538;28;20031;-80
2022/12/30 07:51:14;;;;;;;20.67;2.42;;;;;;;6.21;100.00;100577.75;5122673;28;20051;-83
2022/12/30 07:53:40;;;;;;;16.45;3.65;;;;;;;6.15;100.00;100577.28;5121955;28;20041;-83
2022/12/30 07:56:08;;;;;;;10.88;2.58;;;;;;;6.24;100.00;100568.53;5085315;28;20040;-83
2022/12/30 07:58:34;;;;;;;18.90;2.20;;;;;;;6.24;100.00;100554.94;5100945;28;20031;-84
2022/12/30 08:01:04;;;;;;;14.18;2.65;;;;;;;6.29;100.00;100541.91;5121255;28;20039;-83
2022/12/30 08:03:30;;;;;;;5.53;1.70;;;;;;;6.24;100.00;100523.19;5117978;28;20047;-83
2022/12/30 08:05:56;;;;;;;25.50;2.90;;;;;;;6.23;100.00;100531.44;5086528;28;20032;-83
2022/12/30 08:08:21;;;;;;;18.77;2.40;;;;;;;6.22;100.00;100537.88;5071072;28;20407;-84
2022/12/30 08:10:57;;;;;;;11.15;1.52;;;;;;;6.35;100.00;100533.34;5076545;27;20051;-83
2022/12/30 08:13:23;;;;;;;16.92;2.50;;;;;;;6.33;100.00;100532.59;5101835;27;20083;-83
2022/12/30 08:15:48;;;;;;;11.80;1.73;;;;;;;6.33;100.00;100527.16;5107562;27;20074;-83
2022/12/30 08:18:14;;;;;;;8.80;2.30;;;;;;;6.42;100.00;100525.66;5109260;27;20031;-84
2022/12/30 08:20:39;;;;;;;30.83;3.15;;;;;;;6.42;100.00;100510.19;5094226;27;20179;-83
2022/12/30 08:23:05;;;;;;;11.07;2.60;;;;;;;6.42;100.00;100518.34;5086142;27;20027;-83
2022/12/30 08:25:30;;;;;;;11.63;2.40;;;;;;;6.46;100.00;100515.44;5107227;27;20058;-84
2022/12/30 08:27:56;;;;;;;9.63;1.98;;;;;;;6.56;100.00;100517.44;5070844;28;20044;-83
2022/12/30 08:30:21;;;;;;;8.68;2.08;;;;;;;6.46;100.00;100519.03;5091996;27;20508;-83
2022/12/30 08:32:46;;;;;;;17.17;2.47;;;;;;;6.66;100.00;100524.94;5108946;27;20066;-83
2022/12/30 08:35:12;;;;;;;11.27;1.77;;;;;;;6.47;100.00;100504.44;5095058;27;20035;-83
2022/12/30 08:37:37;;;;;;;22.27;2.00;;;;;;;6.48;100.00;100492.63;5111041;28;20023;-83
2022/12/30 08:40:04;;;;;;;15.88;2.53;;;;;;;6.67;100.00;100507.66;5112075;28;20110;-83
2022/12/30 08:42:29;;;;;;;16.63;2.72;;;;;;;6.69;100.00;100498.44;5112030;28;20031;-83
2022/12/30 08:44:55;;;;;;;14.65;2.35;;;;;;;6.76;100.00;100501.59;5131536;27;20048;-83
2022/12/30 08:47:20;;;;;;;15.45;2.08;;;;;;;6.74;100.00;100504.44;5096759;27;20031;-83
2022/12/30 08:49:46;;;;;;;10.80;2.50;;;;;;;6.71;100.00;100491.03;5096819;27;20065;-82
2022/12/30 08:52:11;;;;;;;9.60;1.92;;;;;;;6.64;100.00;100495.16;5097991;27;20027;-83
2022/12/30 08:54:36;;;;;;;14.18;1.58;;;;;;;6.71;100.00;100499.19;5097443;27;20030;-83
2022/12/30 08:57:02;;;;;;;10.63;1.83;;;;;;;6.78;100.00;100488.75;5131593;27;20114;-83
2022/12/30 08:59:28;;;;;;;11.85;2.15;;;;;;;6.81;100.00;100486.69;5098802;27;20100;-83
2022/12/30 09:01:53;;;;;;;13.02;1.83;;;;;;;6.77;100.00;100465.22;5097863;27;20118;-83
2022/12/30 09:04:19;;;;;;;6.95;1.60;;;;;;;6.71;100.00;100449.38;5114081;27;20039;-83
2022/12/30 09:06:44;;;;;;;21.00;2.17;;;;;;;7.01;100.00;100459.06;5081369;27;20039;-84
2022/12/30 09:09:13;;;;;;;14.35;1.40;;;;;;;7.07;100.00;100459.50;5129208;27;20046;-83
2022/12/30 09:11:41;;;;;;;13.27;1.83;;;;;;;7.12;100.00;100449.16;5129826;27;20039;-83
2022/12/30 09:14:08;;;;;;;15.75;1.83;;;;;;;7.13;100.00;100453.63;5110128;28;20044;-83
2022/12/30 09:16:34;;;;;;;11.77;1.80;;;;;;;7.21;100.00;100446.75;5114482;27;20035;-84
2022/12/30 09:18:59;;;;;;;10.50;2.00;;;;;;;7.31;100.00;100437.81;5111559;27;20034;-83
2022/12/30 09:21:25;;;;;;;16.85;1.88;;;;;;;7.17;100.00;100436.06;5131091;27;20439;-83
2022/12/30 09:23:51;;;;;;;11.57;1.85;;;;;;;7.21;100.00;100433.13;5092112;28;20028;-83
2022/12/30 09:26:19;;;;;;;8.82;1.13;;;;;;;7.23;100.00;100425.72;5121522;27;20085;-83
2022/12/30 09:28:45;;;;;;;3.35;1.00;;;;;;;7.35;100.00;100425.72;5122556;27;20047;-82
2022/12/30 09:31:11;;;;;;;11.48;1.15;;;;;;;7.44;100.00;100420.56;5131558;27;20421;-82
2022/12/30 09:33:37;;;;;;;13.23;1.50;;;;;;;7.57;100.00;100415.97;5130437;27;20031;-82
2022/12/30 09:36:03;;;;;;;11.02;1.60;;;;;;;7.62;100.00;100415.63;5129916;27;20031;-82
2022/12/30 09:38:28;;;;;;;7.13;1.17;;;;;;;7.61;100.00;100417.50;5097109;27;20029;-82
2022/12/30 09:40:57;;;;;;;13.73;1.85;;;;;;;7.66;100.00;100422.59;5101597;27;20035;-82
2022/12/30 09:43:25;;;;;;;10.15;1.23;;;;;;;7.67;100.00;100419.78;5112665;27;20122;-82
2022/12/30 09:46:36;;;;;;;11.95;1.77;;;;;;;7.99;100.00;100412.88;5110759;27;20027;-82
2022/12/30 09:49:17;;;;;;;15.43;1.70;;;;;;;7.91;100.00;100410.72;5089145;27;20047;-82
2022/12/30 09:51:47;;;;;;;5.95;1.05;;;;;;;7.92;100.00;100393.41;5131170;27;20027;-82
2022/12/30 09:54:24;;;;;;;2.95;1.05;;;;;;;8.08;100.00;100401.25;5131159;27;20030;-83
2022/12/30 09:56:57;;;;;;;6.80;1.02;;;;;;;8.06;100.00;100395.06;5131343;27;20038;-82
2022/12/30 09:59:32;;;;;;;10.13;1.40;;;;;;;8.08;100.00;100388.53;5094034;28;20032;-82
2022/12/30 10:02:22;;;;;;;4.93;1.00;;;;;;;8.24;100.00;100385.47;5113443;27;20031;-82
2022/12/30 10:04:48;;;;;;;13.82;1.25;;;;;;;8.22;100.00;100379.25;5113504;27;20034;-83
2022/12/30 10:07:34;;;;;;;5.65;1.05;;;;;;;8.24;100.00;100380.00;5148402;27;20055;-82
2022/12/30 10:10:06;;;;;;;8.93;1.23;;;;;;;8.26;100.00;100375.31;5120154;28;20028;-82
2022/12/30 10:12:43;;;;;;;4.63;1.30;;;;;;;8.37;100.00;100368.16;5093336;28;20095;-82
2022/12/30 10:15:23;;;;;;;9.38;1.45;;;;;;;8.49;100.00;100363.63;5143848;27;20042;-82
2022/12/30 10:18:24;;;;;;;5.60;1.45;;;;;;;8.51;100.00;100351.63;5131241;27;20023;-82
2022/12/30 10:21:07;;;;;;;5.97;1.15;;;;;;;8.44;100.00;100331.25;5128069;28;20039;-82
2022/12/30 10:23:47;;;;;;;3.85;1.23;;;;;;;8.54;100.00;100325.94;5133191;27;20437;-83
2022/12/30 10:26:26;;;;;;;8.48;1.40;;;;;;;8.59;100.00;100330.06;5130472;27;20117;-83
2022/12/30 10:28:59;;;;;;;10.27;1.15;;;;;;;8.67;100.00;100323.09;5125516;28;20059;-83
2022/12/30 10:31:29;;;;;;;9.25;0.95;;;;;;;8.53;100.00;100310.56;5126220;28;20499;-82
2022/12/30 10:34:02;;;;;;;6.80;1.10;;;;;;;8.55;100.00;100312.19;5125570;28;20024;-82
2022/12/30 10:36:34;;;;;;;11.85;1.10;;;;;;;8.57;100.00;100310.19;5125336;28;20031;-82
2022/12/30 10:39:14;;;;;;;9.13;1.13;;;;;;;8.59;100.00;100305.50;5124629;28;20063;-82
2022/12/30 10:41:58;;;;;;;8.00;0.95;;;;;;;8.65;100.00;100309.59;5126147;28;20024;-82
2022/12/30 10:44:25;;;;;;;10.02;1.60;;;;;;;8.69;100.00;100297.44;5113177;28;20071;-82
2022/12/30 10:47:06;;;;;;;8.93;1.40;;;;;;;8.75;100.00;100293.34;5105965;28;20395;-82
2022/12/30 10:49:56;;;;;;;5.85;1.15;;;;;;;8.89;100.00;100281.31;5103896;28;20008;-82
2022/12/30 10:52:22;;;;;;;8.02;0.90;;;;;;;8.82;100.00;100264.53;5125841;28;20036;-82
2022/12/30 10:54:48;;;;;;;9.98;1.65;;;;;;;8.86;100.00;100246.94;5104565;28;20170;-83
2022/12/30 10:57:16;;;;;;;8.18;1.48;;;;;;;8.86;100.00;100252.38;5088468;28;20027;-82
2022/12/30 10:59:42;;;;;;;10.18;1.38;;;;;;;8.78;100.00;100233.91;5108352;28;20042;-82
2022/12/30 11:02:15;;;;;;;6.97;0.90;;;;;;;8.88;100.00;100220.38;5125477;28;20031;-82
2022/12/30 11:04:42;;;;;;;;;;;;;;;8.81;100.00;100203.63;5104436;28;20040;-81
2022/12/30 11:07:10;;;;;;;11.07;1.10;;;;;;;8.84;100.00;100205.25;5144561;27;19911;-82
2022/12/30 11:09:36;;;;;;;5.75;1.13;;;;;;;8.75;100.00;100187.75;5130713;27;20169;-81
2022/12/30 11:15:12;;;;;;;12.35;1.30;;;;;;;9.00;100.00;100164.75;5125693;28;20110;-81
2022/12/30 11:17:50;;;;;;;9.95;1.13;;;;;;;8.97;100.00;100143.16;5107859;28;20023;-81
2022/12/30 11:20:15;;;;;;;10.40;1.00;;;;;;;8.99;100.00;100148.50;5124532;28;20034;-82
2022/12/30 11:22:45;;;;;;;9.45;1.17;;;;;;;8.80;100.00;100141.81;5107431;28;20118;-81
2022/12/30 11:25:44;;;;;;;5.72;0.82;;;;;;;8.87;100.00;100139.47;5126187;28;20039;-82
2022/12/30 11:28:20;;;;;;;14.02;2.03;;;;;;;8.83;100.00;100129.81;5092432;28;20062;-82
2022/12/30 11:30:56;;;;;;;9.15;1.10;;;;;;;8.95;100.00;100117.88;5124184;28;20553;-81
2022/12/30 11:33:45;;;;;;;14.00;2.00;;;;;;;8.88;100.00;100116.63;5117018;28;20028;-82
2022/12/30 11:36:30;;;;;;;10.73;1.40;;;;;;;8.94;100.00;100109.81;5113290;28;20067;-82
2022/12/30 11:39:17;;;;;;;7.13;1.80;;;;;;;8.86;100.00;100091.34;5123618;28;20035;-82
2022/12/30 11:41:52;;;;;;;13.18;1.27;;;;;;;8.91;100.00;100090.94;5107633;28;20095;-82
2022/12/30 11:44:31;;;;;;;9.82;1.88;;;;;;;8.87;100.00;100086.72;5108060;28;20028;-82
2022/12/30 11:47:10;;;;;;;8.55;1.08;;;;;;;8.86;100.00;100083.13;5092530;28;20032;-82
2022/12/30 11:49:51;;;;;;;16.85;1.40;;;;;;;9.02;100.00;100066.34;5110795;28;20062;-82
2022/12/30 11:52:21;;;;;;;6.40;1.67;;;;;;;9.16;100.00;100051.47;5110090;28;20028;-82
2022/12/30 11:54:50;;;;;;;7.72;0.80;;;;;;;9.30;100.00;100050.31;5110645;28;20120;-81
2022/12/30 11:57:26;;;;;;;5.30;1.20;;;;;;;9.37;100.00;100037.81;5112796;27;20035;-82
2022/12/30 11:59:55;;;;;;;14.32;1.50;;;;;;;9.33;100.00;100036.34;5128067;28;20027;-83
2022/12/30 12:02:25;;;;;;;10.13;1.27;;;;;;;9.28;100.00;100020.38;5108305;28;20031;-83
2022/12/30 12:04:51;;;;;;;6.75;0.80;;;;;;;9.32;100.00;100002.72;5107746;28;20036;-82
2022/12/30 12:07:16;;;;;;;7.63;1.30;;;;;;;9.42;100.00;100010.97;5108268;28;20035;-83
2022/12/30 12:10:20;;;;;;;13.75;1.60;;;;;;;9.42;100.00;100002.75;5108179;28;20039;-82
2022/12/30 12:12:55;;;;;;;12.18;1.00;;;;;;;9.34;100.00;99994.38;5093343;28;20107;-82
2022/12/30 12:15:43;;;;;;;8.85;1.13;;;;;;;9.35;100.00;99983.31;5125993;28;20023;-83
2022/12/30 12:18:26;;;;;;;10.43;1.30;;;;;;;9.31;100.00;99981.00;5125434;28;20024;-83
2022/12/30 12:21:07;;;;;;;24.73;1.63;;;;;;;9.36;100.00;99971.41;5125946;28;20039;-82
2022/12/30 12:23:46;;;;;;;17.98;1.40;;;;;;;9.48;100.00;99957.66;5124789;28;20526;-81
2022/12/30 12:26:24;;;;;;;20.70;1.42;;;;;;;9.39;100.00;99942.94;5118340;28;20104;-82
2022/12/30 12:28:52;;;;;;;7.65;1.13;;;;;;;9.46;100.00;99951.44;5124861;28;20435;-81